Lewisville, Arkansas
Current Conditions -  °F | °C
As of 9:53 AM on Thursday 18 Dec 2014 (Local Time) from KTXK Reporting Station
Overcast Overcast  
Wind Chill: 39°   Ceiling: 500
Heat Index: 42°   Visibility: 9mi
Dew Point: 41°   Wind: 5mph
Humidity: 96%   Direction: 70°ENE
Pressure: 30.21"   Gusts: NA
Location:  33.36°N, 93.58°W
Report Text: KTXK 181553Z 07004KT 9SM OVC005 06/05 A3021 RMK AO2 SLP230 T00560050
Loading
Personal Weather Stations






























Interactive Weather Map New forecast layout! Learn more

10-Day Weather Forecast

Advertisements
Track Severe Weather on mobile